Time;durP1;ratioP1;P1;durP2;ratioP2;P2;SDS_P1;SDS_P2;PMS_P1;PMS_P2;Temp;Humidity;BMP_temperature;BMP_pressure;BME280_temperature;BME280_humidity;BME280_pressure;Samples;Min_cycle;Max_cycle;Signal;HPM_P1;HPM_P2
2023/03/22 00:01:09;;;;;;;26.53;13.27;;;9.60;99.90;;;;;;5070403;28;20060;-78
2023/03/22 00:03:35;;;;;;;20.90;12.10;;;9.70;99.90;;;;;;5051321;28;20106;-77
2023/03/22 00:06:01;;;;;;;20.20;10.90;;;9.80;99.90;;;;;;5070524;28;20483;-77
2023/03/22 00:08:27;;;;;;;20.20;9.57;;;9.80;99.90;;;;;;5053210;28;20056;-77
2023/03/22 00:10:52;;;;;;;21.03;9.17;;;9.80;99.90;;;;;;5070334;28;20431;-78
2023/03/22 00:13:18;;;;;;;24.73;9.70;;;9.70;99.90;;;;;;5069357;28;20127;-78
2023/03/22 00:15:47;;;;;;;21.10;8.97;;;9.70;99.90;;;;;;5070273;28;20048;-78
2023/03/22 00:18:13;;;;;;;20.30;7.77;;;9.70;99.90;;;;;;5053519;28;20119;-79
2023/03/22 00:20:47;;;;;;;19.47;7.30;;;9.70;99.90;;;;;;5069472;28;20090;-78
2023/03/22 00:23:12;;;;;;;19.37;7.37;;;9.70;99.90;;;;;;5051647;28;20368;-79
2023/03/22 00:25:38;;;;;;;19.73;6.97;;;9.60;99.90;;;;;;5069858;28;20040;-78
2023/03/22 00:28:04;;;;;;;18.90;6.33;;;9.60;99.90;;;;;;5054079;28;20095;-78
2023/03/22 00:30:30;;;;;;;12.03;5.23;;;9.60;99.90;;;;;;5069797;28;20044;-78
2023/03/22 00:32:55;;;;;;;12.00;4.90;;;9.60;99.90;;;;;;5076932;28;20054;-77
2023/03/22 00:35:21;;;;;;;16.70;5.43;;;9.60;99.90;;;;;;5069149;28;20145;-78
2023/03/22 00:37:50;;;;;;;14.90;5.07;;;9.60;99.90;;;;;;5036218;28;20049;-78
2023/03/22 00:40:16;;;;;;;20.80;4.93;;;9.60;99.90;;;;;;5052069;28;20055;-78
2023/03/22 00:42:42;;;;;;;16.70;4.20;;;9.60;99.90;;;;;;5068827;28;20384;-78
2023/03/22 00:45:10;;;;;;;18.53;4.73;;;9.50;99.90;;;;;;5081615;28;20134;-78
2023/03/22 00:47:36;;;;;;;11.73;4.13;;;9.50;99.90;;;;;;5054181;28;20056;-77
2023/03/22 00:50:02;;;;;;;18.63;4.30;;;9.50;99.90;;;;;;5069452;28;20502;-78
2023/03/22 00:52:28;;;;;;;13.87;3.97;;;9.50;99.90;;;;;;5033334;28;20040;-77
2023/03/22 00:54:54;;;;;;;12.77;3.43;;;9.40;99.90;;;;;;5069857;28;20063;-78
2023/03/22 00:57:20;;;;;;;11.33;3.57;;;9.40;99.90;;;;;;5052737;28;20102;-78
2023/03/22 00:59:46;;;;;;;17.33;3.87;;;9.40;99.90;;;;;;5051336;28;20257;-78
2023/03/22 01:02:12;;;;;;;14.43;3.20;;;9.40;99.90;;;;;;5068461;28;20036;-77
2023/03/22 01:04:45;;;;;;;11.87;3.40;;;9.40;99.90;;;;;;5050750;28;20048;-78
2023/03/22 01:07:16;;;;;;;11.83;2.90;;;9.30;99.90;;;;;;5034859;28;20043;-78
2023/03/22 01:09:45;;;;;;;13.27;3.43;;;9.30;99.90;;;;;;5068757;28;20838;-78
2023/03/22 01:12:11;;;;;;;11.80;3.20;;;9.40;99.90;;;;;;5067260;28;20387;-77
2023/03/22 01:14:37;;;;;;;16.17;3.07;;;9.30;99.90;;;;;;5069004;28;20054;-78
2023/03/22 01:17:03;;;;;;;14.23;2.80;;;9.40;99.90;;;;;;5052302;28;20048;-78
2023/03/22 01:19:29;;;;;;;10.33;3.30;;;9.30;99.90;;;;;;5051030;28;20478;-78
2023/03/22 01:21:56;;;;;;;13.23;2.97;;;9.40;99.90;;;;;;5068844;28;20056;-78
2023/03/22 01:24:22;;;;;;;12.60;3.03;;;9.40;99.90;;;;;;5067449;28;20044;-78
2023/03/22 01:26:48;;;;;;;16.03;2.97;;;9.30;99.90;;;;;;5053726;28;20056;-78
2023/03/22 01:29:14;;;;;;;9.73;2.50;;;9.30;99.90;;;;;;5068032;28;20430;-78
2023/03/22 01:31:40;;;;;;;8.40;2.63;;;9.30;99.90;;;;;;5074735;28;20118;-79
2023/03/22 01:34:06;;;;;;;10.60;2.70;;;9.30;99.90;;;;;;5075916;28;20063;-78
2023/03/22 01:36:31;;;;;;;14.17;3.20;;;9.20;99.90;;;;;;5054318;28;20044;-79
2023/03/22 01:38:58;;;;;;;11.33;2.87;;;9.20;99.90;;;;;;5048534;28;20079;-78
2023/03/22 01:41:24;;;;;;;15.23;2.50;;;9.20;99.90;;;;;;5050699;28;20093;-78
2023/03/22 01:44:10;;;;;;;11.73;2.50;;;9.20;99.90;;;;;;5068894;28;20057;-78
2023/03/22 01:46:36;;;;;;;12.67;2.57;;;9.10;99.90;;;;;;5056121;28;20584;-78
2023/03/22 01:49:04;;;;;;;12.87;2.40;;;9.10;99.90;;;;;;5065712;28;20135;-78
2023/03/22 01:51:30;;;;;;;8.13;2.30;;;9.10;99.90;;;;;;5043125;28;20049;-79
2023/03/22 01:54:00;;;;;;;9.70;2.30;;;9.10;99.90;;;;;;5032509;28;20040;-78
2023/03/22 01:56:29;;;;;;;10.10;2.40;;;9.10;99.90;;;;;;5055066;28;20056;-78
2023/03/22 01:58:55;;;;;;;11.13;2.30;;;9.10;99.90;;;;;;5066442;28;20064;-79
2023/03/22 02:01:22;;;;;;;10.97;2.10;;;9.00;99.90;;;;;;5068329;28;20060;-79
2023/03/22 02:03:54;;;;;;;12.77;2.57;;;9.00;99.90;;;;;;5048735;28;20135;-78
2023/03/22 02:06:21;;;;;;;10.73;2.40;;;9.00;99.90;;;;;;5056319;28;20441;-79
2023/03/22 02:08:48;;;;;;;10.27;2.27;;;9.00;99.90;;;;;;5064546;28;20075;-79
2023/03/22 02:11:24;;;;;;;12.20;2.53;;;9.00;99.90;;;;;;5068053;28;20151;-79
2023/03/22 02:13:59;;;;;;;13.47;2.20;;;9.00;99.90;;;;;;5067397;28;20040;-78
2023/03/22 02:16:58;;;;;;;9.13;2.30;;;9.00;99.90;;;;;;5055045;28;20530;-79
2023/03/22 02:20:06;;;;;;;9.80;2.30;;;9.00;99.90;;;;;;5030114;28;20122;-79
2023/03/22 02:23:02;;;;;;;13.03;2.67;;;9.00;99.90;;;;;;5066614;28;20433;-79
2023/03/22 02:25:34;;;;;;;11.20;2.47;;;9.00;99.90;;;;;;5067771;28;20053;-79
2023/03/22 02:28:44;;;;;;;14.97;2.70;;;9.00;99.90;;;;;;5051120;28;20484;-78
2023/03/22 02:31:46;;;;;;;16.03;2.47;;;9.10;99.90;;;;;;5062634;28;20056;-79
2023/03/22 02:34:30;;;;;;;10.70;2.10;;;9.10;99.90;;;;;;5066551;28;20052;-78
2023/03/22 02:37:37;;;;;;;10.30;2.10;;;9.10;99.90;;;;;;5052954;28;20052;-78
2023/03/22 02:40:06;;;;;;;14.67;2.73;;;9.10;99.90;;;;;;5029486;28;20053;-79
2023/03/22 02:42:31;;;;;;;12.27;3.03;;;9.10;99.90;;;;;;5065474;28;20444;-78
2023/03/22 02:45:41;;;;;;;11.90;2.00;;;9.10;99.90;;;;;;5060115;28;20060;-79
2023/03/22 02:48:21;;;;;;;11.67;2.30;;;9.10;99.90;;;;;;4983100;28;20049;-77
2023/03/22 02:51:05;;;;;;;8.53;1.90;;;9.10;99.90;;;;;;5039701;28;20045;-77
2023/03/22 02:53:43;;;;;;;12.30;2.53;;;9.10;99.90;;;;;;5063680;28;20049;-77
2023/03/22 02:56:44;;;;;;;9.47;2.43;;;9.10;99.90;;;;;;5044731;28;20049;-80
2023/03/22 02:59:11;;;;;;;19.10;2.63;;;9.00;99.90;;;;;;4967519;28;20063;-77
2023/03/22 03:01:47;;;;;;;11.10;2.37;;;9.10;99.90;;;;;;5016359;28;20589;-79
2023/03/22 03:04:18;;;;;;;11.57;2.73;;;9.20;99.90;;;;;;5052338;28;20060;-78
2023/03/22 03:06:46;;;;;;;12.07;2.80;;;9.20;99.90;;;;;;5055508;28;20048;-79
2023/03/22 03:09:17;;;;;;;20.07;3.57;;;9.20;99.90;;;;;;5034765;28;20045;-78
2023/03/22 03:11:46;;;;;;;13.35;2.88;;;9.20;99.90;;;;;;5071166;28;20159;-78
2023/03/22 03:14:29;;;;;;;11.93;2.67;;;9.20;99.90;;;;;;5051952;28;20048;-77
2023/03/22 03:17:16;;;;;;;9.30;2.47;;;9.20;99.90;;;;;;5055641;28;20044;-78
2023/03/22 03:20:21;;;;;;;13.13;2.70;;;9.20;99.90;;;;;;5070555;28;20052;-78
2023/03/22 03:22:55;;;;;;;11.57;2.70;;;9.20;99.90;;;;;;5070121;28;20375;-78
2023/03/22 03:25:33;;;;;;;14.93;2.67;;;9.20;99.90;;;;;;5070441;28;20511;-77
2023/03/22 03:28:28;;;;;;;16.80;2.67;;;9.20;99.90;;;;;;5054695;28;20044;-77
2023/03/22 03:31:16;;;;;;;17.67;3.03;;;9.20;99.90;;;;;;5053727;28;20056;-78
2023/03/22 03:33:59;;;;;;;12.73;2.67;;;9.20;99.90;;;;;;5049134;28;20048;-77
2023/03/22 03:36:25;;;;;;;13.13;2.57;;;9.10;99.90;;;;;;5040128;28;20454;-78
2023/03/22 03:38:54;;;;;;;14.00;2.70;;;9.10;99.90;;;;;;5066444;28;20044;-77
2023/03/22 03:41:24;;;;;;;14.87;2.70;;;9.10;99.90;;;;;;5053105;28;20129;-78
2023/03/22 03:43:51;;;;;;;10.70;2.77;;;9.10;99.90;;;;;;5052334;28;20156;-78
2023/03/22 03:46:17;;;;;;;16.57;2.87;;;9.10;99.90;;;;;;5071594;28;20037;-78
2023/03/22 03:48:47;;;;;;;11.67;2.77;;;9.10;99.90;;;;;;5064971;28;20068;-78
2023/03/22 03:51:12;;;;;;;12.20;2.93;;;9.10;99.90;;;;;;5063922;28;20439;-78
2023/03/22 03:53:38;;;;;;;13.87;2.50;;;9.10;99.90;;;;;;5057794;28;20074;-77
2023/03/22 03:56:05;;;;;;;15.10;2.97;;;9.10;99.90;;;;;;5069775;28;20048;-79
2023/03/22 03:58:30;;;;;;;10.90;2.60;;;9.00;99.90;;;;;;5058501;28;20058;-78
2023/03/22 04:00:56;;;;;;;14.77;3.20;;;9.10;99.90;;;;;;5070297;28;20040;-77
2023/03/22 04:03:22;;;;;;;13.87;3.20;;;9.10;99.90;;;;;;5069801;28;20127;-77
2023/03/22 04:05:47;;;;;;;15.40;3.33;;;9.20;99.90;;;;;;5070631;28;20047;-78
2023/03/22 04:08:13;;;;;;;11.20;3.30;;;9.20;99.90;;;;;;5052776;28;20384;-79
2023/03/22 04:10:39;;;;;;;11.70;3.37;;;9.20;99.90;;;;;;5070387;28;20377;-77
2023/03/22 04:13:05;;;;;;;14.77;2.87;;;9.10;99.90;;;;;;5050968;28;20055;-77
2023/03/22 04:15:34;;;;;;;12.60;3.00;;;9.20;99.90;;;;;;5035996;28;20050;-77
2023/03/22 04:18:00;;;;;;;10.17;3.20;;;9.20;99.90;;;;;;5053338;28;20049;-77
2023/03/22 04:20:25;;;;;;;11.47;3.27;;;9.20;99.90;;;;;;5069519;28;20048;-77
2023/03/22 04:22:51;;;;;;;15.87;3.17;;;9.20;99.90;;;;;;5069571;28;20037;-77
2023/03/22 04:25:17;;;;;;;15.87;3.33;;;9.20;99.90;;;;;;5070234;28;20041;-78
2023/03/22 04:27:49;;;;;;;11.83;3.13;;;9.10;99.90;;;;;;5053552;28;20041;-77
2023/03/22 04:30:17;;;;;;;11.83;2.93;;;9.20;99.90;;;;;;5035723;28;20052;-77
2023/03/22 04:32:44;;;;;;;16.77;3.20;;;9.10;99.90;;;;;;5079778;28;20418;-78
2023/03/22 04:35:09;;;;;;;13.87;3.53;;;9.20;99.90;;;;;;5035638;28;20055;-77
2023/03/22 04:37:35;;;;;;;15.03;3.53;;;9.10;99.90;;;;;;5053944;28;20131;-78
2023/03/22 04:40:05;;;;;;;14.30;3.10;;;9.10;99.90;;;;;;5052022;28;20051;-77
2023/03/22 04:42:31;;;;;;;12.57;3.67;;;9.20;99.90;;;;;;5067987;28;20052;-78
2023/03/22 04:44:56;;;;;;;13.30;3.60;;;9.10;99.90;;;;;;5044578;28;20060;-79
2023/03/22 04:47:22;;;;;;;12.33;3.53;;;9.10;99.90;;;;;;5055054;28;20109;-77
2023/03/22 04:49:48;;;;;;;17.43;4.00;;;9.10;99.90;;;;;;5069761;28;20052;-77
2023/03/22 04:52:14;;;;;;;15.53;4.27;;;9.10;99.90;;;;;;5066141;28;20078;-77
2023/03/22 04:54:40;;;;;;;14.97;4.20;;;9.20;99.90;;;;;;5068978;28;20063;-77
2023/03/22 04:57:06;;;;;;;17.77;4.20;;;9.20;99.90;;;;;;5052943;28;20048;-77
2023/03/22 04:59:31;;;;;;;10.10;4.40;;;9.20;99.90;;;;;;5034540;28;20048;-77
2023/03/22 05:01:57;;;;;;;13.73;4.60;;;9.20;99.90;;;;;;5069670;28;20052;-78
2023/03/22 05:04:23;;;;;;;14.27;4.73;;;9.20;99.90;;;;;;5050210;28;20489;-77
2023/03/22 05:06:49;;;;;;;12.93;4.97;;;9.10;99.90;;;;;;5053354;28;20040;-77
2023/03/22 05:09:15;;;;;;;16.27;5.70;;;9.10;99.90;;;;;;5050084;28;20059;-77
2023/03/22 05:11:41;;;;;;;18.33;5.20;;;9.10;99.90;;;;;;5067951;28;20074;-78
2023/03/22 05:14:08;;;;;;;16.13;5.80;;;9.10;99.90;;;;;;5048252;28;20044;-78
2023/03/22 05:16:34;;;;;;;14.93;6.50;;;9.10;99.90;;;;;;5055076;28;20051;-77
2023/03/22 05:19:01;;;;;;;15.90;5.80;;;9.20;99.90;;;;;;5066272;28;20051;-77
2023/03/22 05:21:28;;;;;;;16.77;7.10;;;9.20;99.90;;;;;;5069276;28;20044;-77
2023/03/22 05:23:56;;;;;;;21.50;11.80;;;9.20;99.90;;;;;;5048342;28;20585;-77
2023/03/22 05:26:25;;;;;;;19.70;8.77;;;9.20;99.90;;;;;;5053442;28;20049;-77
2023/03/22 05:28:52;;;;;;;26.97;9.93;;;9.20;99.90;;;;;;5040978;28;20135;-77
2023/03/22 05:31:20;;;;;;;19.93;9.67;;;9.20;99.90;;;;;;5071239;28;20059;-78
2023/03/22 05:33:47;;;;;;;19.80;10.10;;;9.30;99.90;;;;;;5070096;28;20106;-77
2023/03/22 05:36:13;;;;;;;18.43;10.03;;;9.30;99.90;;;;;;5058581;28;20048;-77
2023/03/22 05:38:38;;;;;;;21.60;10.93;;;9.30;99.90;;;;;;5062501;28;20127;-77
2023/03/22 05:41:04;;;;;;;21.03;10.93;;;9.30;99.90;;;;;;5068581;28;20052;-77
2023/03/22 05:43:31;;;;;;;22.43;10.60;;;9.40;99.90;;;;;;5067782;28;20102;-77
2023/03/22 05:45:57;;;;;;;21.60;10.87;;;9.40;99.90;;;;;;5031830;28;20052;-77
2023/03/22 05:48:23;;;;;;;21.37;10.83;;;9.40;99.90;;;;;;5034253;28;20045;-77
2023/03/22 05:50:48;;;;;;;19.70;11.33;;;9.50;99.90;;;;;;5064759;28;20521;-77
2023/03/22 05:53:14;;;;;;;23.90;11.07;;;9.40;99.90;;;;;;5063191;28;20132;-77
2023/03/22 05:55:40;;;;;;;21.50;10.77;;;9.40;99.90;;;;;;5066935;28;20072;-78
2023/03/22 05:58:07;;;;;;;22.10;11.13;;;9.50;99.90;;;;;;5051555;28;20040;-78
2023/03/22 06:00:32;;;;;;;20.63;11.53;;;9.50;99.90;;;;;;5068712;28;20064;-78
2023/03/22 06:03:02;;;;;;;22.50;12.40;;;9.50;99.90;;;;;;5067134;28;20040;-77
2023/03/22 06:05:30;;;;;;;23.07;11.80;;;9.50;99.90;;;;;;5050533;28;20129;-78
2023/03/22 06:07:56;;;;;;;22.63;11.37;;;9.60;99.90;;;;;;5051718;28;20040;-77
2023/03/22 06:10:23;;;;;;;26.20;11.33;;;9.60;99.90;;;;;;5067412;28;20095;-78
2023/03/22 06:12:49;;;;;;;21.77;11.60;;;9.60;99.90;;;;;;5047622;28;20528;-78
2023/03/22 06:15:15;;;;;;;20.23;11.77;;;9.50;99.90;;;;;;5044274;28;20060;-78
2023/03/22 06:17:41;;;;;;;21.77;12.30;;;9.60;99.90;;;;;;5034130;28;20130;-77
2023/03/22 06:20:10;;;;;;;24.50;12.43;;;9.50;99.90;;;;;;5050343;28;20124;-78
2023/03/22 06:22:37;;;;;;;21.27;11.23;;;9.80;99.90;;;;;;5049754;28;20058;-77
2023/03/22 06:25:04;;;;;;;23.27;11.60;;;9.60;99.90;;;;;;5071417;28;20044;-78
2023/03/22 06:27:30;;;;;;;21.17;12.10;;;9.60;99.90;;;;;;5054871;28;20047;-78
2023/03/22 06:29:55;;;;;;;21.33;11.53;;;9.60;99.90;;;;;;5072332;28;20044;-77
2023/03/22 06:32:25;;;;;;;20.70;11.93;;;9.70;99.90;;;;;;5072004;28;20051;-78
2023/03/22 06:34:52;;;;;;;20.33;11.80;;;9.70;99.90;;;;;;5054302;28;20498;-77
2023/03/22 06:37:18;;;;;;;20.20;12.73;;;9.60;99.90;;;;;;5056698;28;20094;-78
2023/03/22 06:39:44;;;;;;;22.60;12.50;;;9.70;99.90;;;;;;5053311;28;20523;-78
2023/03/22 06:42:10;;;;;;;20.73;12.47;;;9.70;99.90;;;;;;5071439;28;20040;-77
2023/03/22 06:44:35;;;;;;;20.93;12.70;;;9.70;99.90;;;;;;5061761;28;20106;-77
2023/03/22 06:47:02;;;;;;;22.53;12.93;;;9.70;99.90;;;;;;5060756;28;20532;-77
2023/03/22 06:49:28;;;;;;;23.37;13.43;;;9.70;99.90;;;;;;5036614;28;20048;-78
2023/03/22 06:51:54;;;;;;;25.37;13.87;;;9.70;99.90;;;;;;5068814;28;20041;-77
2023/03/22 06:54:19;;;;;;;23.03;13.27;;;9.80;99.90;;;;;;5051470;28;20056;-78
2023/03/22 06:56:45;;;;;;;26.80;14.13;;;9.80;99.90;;;;;;5053472;28;20055;-77
2023/03/22 06:59:11;;;;;;;25.33;13.93;;;9.80;99.90;;;;;;5071337;28;20053;-77
2023/03/22 07:01:36;;;;;;;26.67;13.97;;;9.90;99.90;;;;;;5072267;28;20093;-77
2023/03/22 07:04:02;;;;;;;22.47;14.07;;;10.00;99.90;;;;;;5070886;28;20041;-77
2023/03/22 07:06:29;;;;;;;23.90;13.40;;;10.00;99.90;;;;;;5059319;28;20636;-77
2023/03/22 07:08:55;;;;;;;23.83;13.97;;;10.10;99.90;;;;;;5068349;28;20106;-77
2023/03/22 07:11:21;;;;;;;25.70;13.90;;;10.00;99.90;;;;;;5052667;28;20078;-78
2023/03/22 07:13:46;;;;;;;22.13;14.70;;;10.10;99.90;;;;;;5070600;28;20037;-77
2023/03/22 07:16:12;;;;;;;23.47;13.50;;;10.10;99.90;;;;;;5060879;28;20052;-77
2023/03/22 07:18:37;;;;;;;23.03;12.53;;;10.10;99.90;;;;;;5062916;28;20045;-77
2023/03/22 07:21:04;;;;;;;19.97;12.57;;;10.10;99.90;;;;;;5070175;28;20043;-76
2023/03/22 07:23:29;;;;;;;19.37;12.47;;;10.20;99.90;;;;;;5051240;28;20084;-77
2023/03/22 07:25:55;;;;;;;20.70;11.63;;;10.30;99.90;;;;;;5071042;28;20088;-77
2023/03/22 07:28:21;;;;;;;20.40;12.17;;;10.20;99.90;;;;;;5054303;28;20383;-77
2023/03/22 07:30:47;;;;;;;19.90;12.20;;;10.20;99.90;;;;;;5070865;28;20040;-77
2023/03/22 07:33:13;;;;;;;22.77;12.47;;;10.20;99.90;;;;;;5069839;28;20498;-77
2023/03/22 07:35:39;;;;;;;22.77;11.77;;;10.20;99.90;;;;;;5069769;28;20189;-77
2023/03/22 07:38:05;;;;;;;22.87;12.10;;;10.10;99.90;;;;;;5054665;28;20460;-77
2023/03/22 07:40:31;;;;;;;21.40;11.63;;;10.30;99.90;;;;;;5070803;28;20552;-77
2023/03/22 07:42:57;;;;;;;19.93;11.37;;;10.20;99.90;;;;;;5069081;28;20045;-77
2023/03/22 07:45:24;;;;;;;20.43;10.47;;;10.20;99.90;;;;;;5067842;28;20052;-77
2023/03/22 07:47:50;;;;;;;23.43;11.87;;;10.20;99.90;;;;;;5034783;28;20048;-77
2023/03/22 07:50:16;;;;;;;24.47;13.10;;;10.20;99.90;;;;;;5069245;28;20048;-77
2023/03/22 07:52:43;;;;;;;24.27;15.10;;;10.20;99.90;;;;;;5034393;28;20033;-77
2023/03/22 07:55:11;;;;;;;23.40;13.30;;;10.30;99.90;;;;;;5029437;28;20099;-78
2023/03/22 07:57:37;;;;;;;22.23;12.37;;;10.40;99.90;;;;;;5035579;28;20475;-77
2023/03/22 08:00:06;;;;;;;18.43;11.87;;;10.50;99.90;;;;;;5069949;28;20422;-78
2023/03/22 08:02:31;;;;;;;20.00;11.00;;;10.50;99.90;;;;;;5068971;28;20044;-78
2023/03/22 08:04:57;;;;;;;20.20;11.20;;;10.60;99.90;;;;;;5051266;28;20455;-78
2023/03/22 08:07:26;;;;;;;21.90;9.43;;;10.60;99.90;;;;;;5026002;28;20048;-79
2023/03/22 08:09:51;;;;;;;15.63;9.60;;;10.60;99.90;;;;;;5062719;28;20041;-78
2023/03/22 08:12:17;;;;;;;19.60;9.80;;;10.50;99.90;;;;;;5041332;28;20041;-78
2023/03/22 08:14:46;;;;;;;16.87;9.30;;;10.50;99.90;;;;;;5014739;28;20049;-79
2023/03/22 08:17:12;;;;;;;19.00;9.50;;;10.50;99.90;;;;;;5037748;28;20514;-79
2023/03/22 08:19:38;;;;;;;17.23;9.23;;;10.50;99.90;;;;;;5059531;28;20044;-78
2023/03/22 08:22:05;;;;;;;23.03;10.17;;;10.60;99.90;;;;;;5030048;28;20554;-79
2023/03/22 08:24:32;;;;;;;18.83;9.53;;;10.60;99.90;;;;;;5032699;28;20462;-78
2023/03/22 08:26:58;;;;;;;13.93;8.27;;;10.70;99.90;;;;;;5037689;28;20246;-78
2023/03/22 08:29:24;;;;;;;19.17;9.70;;;10.70;99.90;;;;;;5060625;28;20044;-78
2023/03/22 08:31:50;;;;;;;16.83;8.70;;;10.60;99.90;;;;;;5054750;28;20048;-78
2023/03/22 08:34:16;;;;;;;19.27;8.90;;;10.70;99.90;;;;;;5055645;28;20598;-79
2023/03/22 08:36:42;;;;;;;15.47;8.30;;;10.70;99.90;;;;;;5036596;28;20049;-78
2023/03/22 08:39:08;;;;;;;21.70;9.00;;;10.80;99.90;;;;;;5035878;28;20139;-79
2023/03/22 08:41:34;;;;;;;17.40;7.47;;;10.70;99.90;;;;;;5034066;28;20138;-79
2023/03/22 08:44:00;;;;;;;17.80;7.97;;;10.70;99.90;;;;;;5053342;28;20056;-79
2023/03/22 08:46:26;;;;;;;15.47;7.80;;;10.70;99.90;;;;;;5045258;28;20519;-78
2023/03/22 08:48:52;;;;;;;19.23;8.33;;;10.90;99.90;;;;;;5049872;28;20525;-79
2023/03/22 08:51:24;;;;;;;15.23;7.93;;;10.70;99.90;;;;;;5055635;28;20057;-80
2023/03/22 08:53:49;;;;;;;;;;;10.80;99.90;;;;;;5056127;28;20127;-79
2023/03/22 08:56:15;;;;;;;17.27;7.30;;;10.80;99.90;;;;;;5048256;28;19962;-79
2023/03/22 08:58:45;;;;;;;16.83;7.43;;;10.90;99.90;;;;;;5052866;28;20052;-78
2023/03/22 09:01:16;;;;;;;17.50;7.13;;;10.90;99.90;;;;;;5052626;28;20057;-78
2023/03/22 09:03:42;;;;;;;18.00;7.33;;;10.80;99.90;;;;;;5056480;28;20044;-78
2023/03/22 09:06:09;;;;;;;15.47;7.13;;;10.80;99.90;;;;;;5049413;28;20282;-79
2023/03/22 09:08:35;;;;;;;19.07;7.30;;;10.70;99.90;;;;;;5039529;28;20510;-78
2023/03/22 09:11:01;;;;;;;13.83;6.70;;;10.80;99.90;;;;;;5028895;28;20527;-79
2023/03/22 09:13:29;;;;;;;16.73;7.13;;;10.70;99.90;;;;;;5046606;28;21757;-79
2023/03/22 09:15:55;;;;;;;24.10;7.00;;;10.80;99.90;;;;;;5030662;28;20091;-78
2023/03/22 09:18:23;;;;;;;18.70;7.10;;;10.80;99.90;;;;;;5035818;28;20102;-79
2023/03/22 09:20:49;;;;;;;13.43;6.53;;;10.80;99.90;;;;;;5029536;28;20118;-79
2023/03/22 09:23:15;;;;;;;18.90;6.63;;;10.80;99.90;;;;;;5048889;28;20079;-79
2023/03/22 09:25:48;;;;;;;18.57;6.43;;;10.80;99.90;;;;;;5056910;28;20134;-79
2023/03/22 09:28:15;;;;;;;16.33;6.20;;;10.90;99.90;;;;;;5031864;28;21528;-80
2023/03/22 09:30:41;;;;;;;17.87;6.67;;;10.90;99.90;;;;;;5048203;28;20055;-79
2023/03/22 09:33:06;;;;;;;15.23;6.00;;;10.90;99.90;;;;;;5047568;28;20056;-79
2023/03/22 09:35:32;;;;;;;15.00;5.80;;;10.80;99.90;;;;;;5048035;28;20052;-79
2023/03/22 09:37:58;;;;;;;13.90;5.70;;;10.70;99.90;;;;;;5031187;28;20139;-79
2023/03/22 09:40:36;;;;;;;17.70;5.67;;;10.60;99.90;;;;;;5048937;28;20056;-79
2023/03/22 09:43:06;;;;;;;13.57;5.63;;;10.60;99.90;;;;;;5047812;28;20128;-78
2023/03/22 09:45:40;;;;;;;15.67;5.20;;;10.60;99.90;;;;;;5048022;28;20048;-78
2023/03/22 09:48:31;;;;;;;19.23;6.03;;;10.50;99.90;;;;;;5015343;28;20056;-79
2023/03/22 09:50:58;;;;;;;13.63;5.43;;;10.50;99.90;;;;;;5047724;28;20160;-79
2023/03/22 09:53:27;;;;;;;14.33;5.47;;;10.40;99.90;;;;;;5049113;28;20040;-78
2023/03/22 09:56:08;;;;;;;15.93;6.00;;;10.40;99.90;;;;;;5038881;28;20059;-78
2023/03/22 09:58:40;;;;;;;;;;;10.30;99.90;;;;;;5012516;28;20080;-78
2023/03/22 10:01:36;;;;;;;16.70;5.70;;;10.30;99.90;;;;;;5054386;28;19924;-78
2023/03/22 10:04:35;;;;;;;14.33;5.90;;;10.20;99.90;;;;;;5038193;28;20094;-79
2023/03/22 10:07:22;;;;;;;15.13;5.50;;;10.10;99.90;;;;;;5038222;28;20380;-79
2023/03/22 10:09:54;;;;;;;14.80;5.97;;;10.10;99.90;;;;;;5053878;28;20123;-78
2023/03/22 10:12:31;;;;;;;17.53;5.60;;;10.10;99.90;;;;;;5054763;28;20058;-78
2023/03/22 10:15:14;;;;;;;15.90;6.13;;;10.10;99.90;;;;;;5060299;28;20083;-79
2023/03/22 10:17:44;;;;;;;16.33;6.27;;;9.90;99.90;;;;;;5044703;28;20611;-79
2023/03/22 10:20:47;;;;;;;12.93;5.90;;;9.80;99.90;;;;;;5059179;28;20075;-79
2023/03/22 10:23:19;;;;;;;14.97;6.50;;;9.80;99.90;;;;;;5059575;28;20474;-79
2023/03/22 10:25:46;;;;;;;18.67;6.63;;;9.70;99.90;;;;;;5061413;28;20056;-79
2023/03/22 10:28:20;;;;;;;17.37;7.17;;;9.70;99.90;;;;;;5027267;28;20090;-78
2023/03/22 10:30:57;;;;;;;19.63;7.53;;;9.60;99.90;;;;;;5059975;28;21169;-79
2023/03/22 10:33:48;;;;;;;17.60;7.10;;;9.60;99.90;;;;;;5060600;28;20067;-79
2023/03/22 10:36:17;;;;;;;18.83;8.10;;;9.60;99.90;;;;;;5053439;28;20043;-79
2023/03/22 10:38:47;;;;;;;14.97;7.07;;;9.60;99.90;;;;;;5038901;28;21734;-79
2023/03/22 10:41:17;;;;;;;16.53;7.13;;;9.50;99.90;;;;;;5060973;28;20295;-79
2023/03/22 10:43:46;;;;;;;16.67;7.23;;;9.50;99.90;;;;;;5054147;28;20543;-78
2023/03/22 10:46:19;;;;;;;16.67;6.63;;;9.40;99.90;;;;;;5045654;28;20056;-79
2023/03/22 10:48:48;;;;;;;14.53;6.67;;;9.50;99.90;;;;;;5048640;28;20521;-78
2023/03/22 10:51:48;;;;;;;12.03;6.23;;;9.50;99.90;;;;;;5036022;28;20059;-79
2023/03/22 10:54:17;;;;;;;13.90;6.10;;;9.50;99.90;;;;;;5023593;28;20546;-78
2023/03/22 10:56:43;;;;;;;10.90;6.20;;;9.50;99.90;;;;;;5043496;28;20056;-78
2023/03/22 10:59:42;;;;;;;14.40;5.77;;;9.60;99.90;;;;;;5053297;28;20067;-79
2023/03/22 11:02:30;;;;;;;17.90;6.30;;;9.60;99.90;;;;;;5052865;28;20487;-79
2023/03/22 11:04:58;;;;;;;15.27;5.53;;;9.60;99.90;;;;;;5054365;28;20079;-78
2023/03/22 11:07:32;;;;;;;13.10;6.27;;;9.60;99.90;;;;;;5019659;28;20056;-79
2023/03/22 11:10:08;;;;;;;14.93;6.13;;;9.70;99.90;;;;;;5054144;28;20163;-78
2023/03/22 11:12:45;;;;;;;8.63;5.43;;;9.70;99.90;;;;;;5049829;28;20052;-79
2023/03/22 11:15:22;;;;;;;13.33;6.00;;;9.70;99.90;;;;;;5033156;28;20206;-78
2023/03/22 11:17:48;;;;;;;14.63;5.80;;;9.80;99.90;;;;;;5019556;28;20171;-78
2023/03/22 11:20:16;;;;;;;13.73;5.63;;;9.80;99.90;;;;;;5038983;28;20048;-78
2023/03/22 11:22:44;;;;;;;11.17;4.90;;;9.80;99.90;;;;;;5057900;28;20052;-79
2023/03/22 11:25:16;;;;;;;10.87;5.27;;;9.80;99.90;;;;;;5058530;28;20502;-78
2023/03/22 11:28:05;;;;;;;9.57;5.63;;;9.80;99.90;;;;;;5041465;28;20128;-79
2023/03/22 11:30:32;;;;;;;11.03;5.37;;;9.80;99.90;;;;;;5055040;28;20045;-78
2023/03/22 11:33:08;;;;;;;14.00;5.20;;;9.90;99.90;;;;;;5056806;28;20136;-78
2023/03/22 11:35:37;;;;;;;11.07;5.20;;;9.90;99.90;;;;;;5054541;28;20493;-78
2023/03/22 11:38:04;;;;;;;10.90;5.70;;;9.90;99.90;;;;;;5023923;28;20071;-78
2023/03/22 11:40:32;;;;;;;12.70;5.53;;;9.90;99.90;;;;;;5059492;28;20454;-79
2023/03/22 11:43:24;;;;;;;9.43;5.37;;;9.90;99.90;;;;;;5051467;28;20529;-79
2023/03/22 11:45:55;;;;;;;17.13;6.03;;;9.90;99.90;;;;;;5056160;28;20600;-78
2023/03/22 11:48:26;;;;;;;11.30;5.90;;;9.90;99.90;;;;;;5038874;28;20114;-78
2023/03/22 11:50:54;;;;;;;13.15;5.63;;;9.90;99.90;;;;;;5039199;28;20763;-78
2023/03/22 11:53:25;;;;;;;14.00;5.70;;;10.00;99.90;;;;;;5057143;28;20048;-79
2023/03/22 11:55:53;;;;;;;;;;;10.00;99.90;;;;;;5040157;28;20132;-79
2023/03/22 11:58:29;;;;;;;11.60;6.10;;;10.00;99.90;;;;;;5040647;28;19971;-78
2023/03/22 12:00:59;;;;;;;9.83;5.40;;;10.00;99.90;;;;;;5034477;28;20048;-79
2023/03/22 12:03:31;;;;;;;11.10;5.47;;;10.00;99.90;;;;;;5012607;28;20048;-78
2023/03/22 12:06:01;;;;;;;9.23;5.20;;;10.00;99.90;;;;;;5034372;28;20513;-79
2023/03/22 12:08:42;;;;;;;12.90;5.33;;;10.00;99.90;;;;;;5032996;28;20059;-79
2023/03/22 12:11:35;;;;;;;11.50;4.97;;;10.00;99.90;;;;;;5038855;28;20051;-79
2023/03/22 12:14:13;;;;;;;11.83;4.90;;;10.10;99.90;;;;;;5054041;28;20128;-78
2023/03/22 12:16:52;;;;;;;8.67;4.90;;;10.10;99.90;;;;;;5045731;28;20405;-78
2023/03/22 12:19:36;;;;;;;9.00;5.10;;;10.10;99.90;;;;;;5031914;28;20588;-79
2023/03/22 12:22:12;;;;;;;10.67;5.33;;;10.10;99.90;;;;;;5031094;28;20048;-75
2023/03/22 12:24:38;;;;;;;11.37;5.07;;;10.20;99.90;;;;;;5033164;28;20081;-79
2023/03/22 12:27:15;;;;;;;12.07;5.33;;;10.20;99.90;;;;;;5019964;28;20060;-77
2023/03/22 12:29:46;;;;;;;12.37;5.33;;;10.20;99.90;;;;;;5047993;28;20439;-79
2023/03/22 12:32:20;;;;;;;11.15;5.32;;;10.20;99.90;;;;;;5058855;28;20054;-79
2023/03/22 12:34:48;;;;;;;13.23;5.97;;;10.10;99.90;;;;;;5031807;28;20102;-78
2023/03/22 12:37:20;;;;;;;13.10;5.77;;;10.10;99.90;;;;;;5016034;28;20155;-78
2023/03/22 12:39:49;;;;;;;;;;;10.00;99.90;;;;;;5042199;28;20168;-79
2023/03/22 12:42:26;;;;;;;12.60;6.50;;;10.00;99.90;;;;;;5049620;28;19935;-79
2023/03/22 12:45:11;;;;;;;12.40;6.63;;;9.90;99.90;;;;;;5036949;28;20438;-78
2023/03/22 12:47:41;;;;;;;12.67;6.73;;;9.90;99.90;;;;;;5045629;28;20463;-79
2023/03/22 12:50:19;;;;;;;16.90;7.57;;;9.80;99.90;;;;;;5059933;28;21252;-79
2023/03/22 12:52:47;;;;;;;17.30;7.40;;;9.80;99.90;;;;;;5046104;28;20049;-79
2023/03/22 12:55:35;;;;;;;15.20;7.80;;;9.80;99.90;;;;;;5052875;28;20040;-79
2023/03/22 12:58:04;;;;;;;14.20;7.27;;;9.80;99.90;;;;;;5031205;28;20075;-78
2023/03/22 13:00:54;;;;;;;14.30;6.57;;;9.70;99.90;;;;;;5048372;28;20052;-78